Time;durP1;ratioP1;P1;durP2;ratioP2;P2;SDS_P1;SDS_P2;PMS_P1;PMS_P2;Temp;Humidity;BMP_temperature;BMP_pressure;BME280_temperature;BME280_humidity;BME280_pressure;Samples;Min_cycle;Max_cycle;Signal;HPM_P1;HPM_P2
2022/10/07 00:00:53;;;;;;;13.23;3.30;;;11.70;99.90;;;;;;5043447;28;20516;-72
2022/10/07 00:03:21;;;;;;;12.90;2.85;;;11.70;99.90;;;;;;5035776;28;20030;-73
2022/10/07 00:05:47;;;;;;;15.18;3.15;;;11.70;99.90;;;;;;5038558;28;20087;-71
2022/10/07 00:08:12;;;;;;;11.60;3.20;;;11.70;99.90;;;;;;5037800;28;20037;-73
2022/10/07 00:10:40;;;;;;;15.02;3.20;;;11.70;99.90;;;;;;5039058;28;20099;-74
2022/10/07 00:13:12;;;;;;;11.75;2.70;;;11.70;99.90;;;;;;5040996;28;20021;-74
2022/10/07 00:15:38;;;;;;;10.38;2.63;;;11.70;99.90;;;;;;5043147;28;20028;-72
2022/10/07 00:18:06;;;;;;;14.45;3.47;;;11.70;99.90;;;;;;5043589;28;20044;-73
2022/10/07 00:20:37;;;;;;;14.85;3.42;;;11.70;99.90;;;;;;5040691;28;20099;-74
2022/10/07 00:23:03;;;;;;;10.50;3.00;;;11.70;99.90;;;;;;5042556;28;20116;-74
2022/10/07 00:25:31;;;;;;;17.00;3.40;;;11.70;99.90;;;;;;5036213;28;20457;-73
2022/10/07 00:27:57;;;;;;;11.18;2.92;;;11.70;99.90;;;;;;5038612;28;20386;-74
2022/10/07 00:30:22;;;;;;;12.70;3.17;;;11.60;99.90;;;;;;5039478;28;20021;-73
2022/10/07 00:32:50;;;;;;;8.77;3.13;;;11.60;99.90;;;;;;5040908;28;20063;-73
2022/10/07 00:35:18;;;;;;;15.68;2.97;;;11.50;99.90;;;;;;5042575;28;20064;-73
2022/10/07 00:37:44;;;;;;;15.13;3.28;;;11.50;99.90;;;;;;5043146;28;20086;-72
2022/10/07 00:40:13;;;;;;;11.18;3.13;;;11.50;99.90;;;;;;5041658;28;20370;-73
2022/10/07 00:42:39;;;;;;;9.40;2.97;;;11.50;99.90;;;;;;5036423;28;20044;-73
2022/10/07 00:45:16;;;;;;;9.18;3.10;;;11.40;99.90;;;;;;5034827;28;20022;-73
2022/10/07 00:47:48;;;;;;;9.30;2.78;;;11.50;99.90;;;;;;5037130;28;20117;-73
2022/10/07 00:50:19;;;;;;;18.65;3.20;;;11.50;99.90;;;;;;5038300;28;20033;-72
2022/10/07 00:52:51;;;;;;;15.70;3.67;;;11.40;99.90;;;;;;5035695;28;20658;-72
2022/10/07 00:55:23;;;;;;;16.55;3.20;;;11.40;99.90;;;;;;5037903;28;20127;-73
2022/10/07 00:57:53;;;;;;;14.88;3.92;;;11.50;99.90;;;;;;5036175;28;20111;-73
2022/10/07 01:00:22;;;;;;;16.23;3.22;;;11.50;99.90;;;;;;5038709;28;20029;-73
2022/10/07 01:02:53;;;;;;;13.63;3.30;;;11.50;99.90;;;;;;5036830;28;20112;-74
2022/10/07 01:05:19;;;;;;;14.20;3.22;;;11.50;99.90;;;;;;5037470;28;20056;-72
2022/10/07 01:07:51;;;;;;;16.02;3.08;;;11.50;99.90;;;;;;5039910;28;20102;-73
2022/10/07 01:10:20;;;;;;;14.25;3.55;;;11.50;99.90;;;;;;5037679;28;20076;-73
2022/10/07 01:13:13;;;;;;;12.70;3.47;;;11.50;99.90;;;;;;5038333;28;20032;-73
2022/10/07 01:15:47;;;;;;;13.10;3.03;;;11.40;99.90;;;;;;5038640;28;20115;-74
2022/10/07 01:18:27;;;;;;;14.98;3.67;;;11.50;99.90;;;;;;5038073;28;20033;-76
2022/10/07 01:21:07;;;;;;;14.27;3.00;;;11.40;99.90;;;;;;5038854;28;20072;-74
2022/10/07 01:23:55;;;;;;;15.23;3.65;;;11.40;99.90;;;;;;5038688;28;20029;-74
2022/10/07 01:26:41;;;;;;;15.50;3.30;;;11.40;99.90;;;;;;5039045;28;20021;-73
2022/10/07 01:29:17;;;;;;;20.40;4.13;;;11.30;99.90;;;;;;5037525;28;20025;-71
2022/10/07 01:31:55;;;;;;;19.20;4.13;;;11.30;99.90;;;;;;5038655;28;20021;-74
2022/10/07 01:34:23;;;;;;;13.88;3.85;;;11.30;99.90;;;;;;5035931;28;20033;-73
2022/10/07 01:36:56;;;;;;;10.35;3.42;;;11.30;99.90;;;;;;5037041;28;20024;-73
2022/10/07 01:39:33;;;;;;;;;;;11.30;99.90;;;;;;5037445;28;20009;-74
2022/10/07 01:41:59;;;;;;;21.45;3.53;;;11.20;99.90;;;;;;5037018;28;19978;-74
2022/10/07 01:44:28;;;;;;;15.20;3.65;;;11.20;99.90;;;;;;5039165;28;20458;-72
2022/10/07 01:46:54;;;;;;;11.73;3.65;;;11.10;99.90;;;;;;5048212;28;20036;-72
2022/10/07 01:49:21;;;;;;;21.30;4.93;;;11.10;99.90;;;;;;5037386;28;20033;-73
2022/10/07 01:52:22;;;;;;;13.75;3.85;;;11.10;99.90;;;;;;5035275;28;20037;-72
2022/10/07 01:54:51;;;;;;;16.88;3.95;;;11.10;99.90;;;;;;5031939;28;20048;-74
2022/10/07 01:57:35;;;;;;;20.85;3.95;;;11.10;99.90;;;;;;5039028;28;20030;-74
2022/10/07 02:00:11;;;;;;;15.85;4.18;;;11.00;99.90;;;;;;5047557;28;20060;-73
2022/10/07 02:03:15;;;;;;;13.18;3.70;;;11.00;99.90;;;;;;5043504;28;21034;-73
2022/10/07 02:05:46;;;;;;;17.92;3.67;;;11.00;99.90;;;;;;5040640;28;20479;-74
2022/10/07 02:08:14;;;;;;;17.75;4.03;;;11.00;99.90;;;;;;5039410;28;20033;-72
2022/10/07 02:10:51;;;;;;;17.30;3.83;;;11.00;99.90;;;;;;5040529;28;20025;-73
2022/10/07 02:13:37;;;;;;;15.00;3.80;;;11.00;99.90;;;;;;5041892;28;20029;-73
2022/10/07 02:16:14;;;;;;;9.93;3.28;;;10.90;99.90;;;;;;5040345;28;20128;-74
2022/10/07 02:18:42;;;;;;;13.23;3.70;;;10.90;99.90;;;;;;5043700;28;20743;-74
2022/10/07 02:21:10;;;;;;;13.25;3.90;;;10.90;99.90;;;;;;5049746;28;20021;-74
2022/10/07 02:23:38;;;;;;;12.25;3.63;;;11.00;99.90;;;;;;5043848;28;20097;-73
2022/10/07 02:26:07;;;;;;;15.55;3.70;;;10.90;99.90;;;;;;5055046;28;20033;-73
2022/10/07 02:28:40;;;;;;;7.05;3.33;;;10.80;99.90;;;;;;5041327;28;20053;-73
2022/10/07 02:31:09;;;;;;;21.65;3.70;;;10.90;99.90;;;;;;5041376;28;20107;-73
2022/10/07 02:33:37;;;;;;;14.52;3.80;;;10.90;99.90;;;;;;5041427;28;20026;-72
2022/10/07 02:36:09;;;;;;;16.25;3.70;;;10.90;99.90;;;;;;5059067;28;20022;-72
2022/10/07 02:38:37;;;;;;;10.53;3.20;;;10.80;99.90;;;;;;5043152;28;20021;-72
2022/10/07 02:41:13;;;;;;;20.27;3.92;;;10.80;99.90;;;;;;5042489;28;20041;-72
2022/10/07 02:43:42;;;;;;;19.02;3.63;;;10.80;99.90;;;;;;5041510;28;20039;-74
2022/10/07 02:46:22;;;;;;;15.43;3.85;;;10.80;99.90;;;;;;5040143;28;20033;-73
2022/10/07 02:49:00;;;;;;;10.65;3.80;;;10.70;99.90;;;;;;5041576;28;20021;-74
2022/10/07 02:51:35;;;;;;;16.35;3.75;;;10.80;99.90;;;;;;5040181;28;20041;-73
2022/10/07 02:54:02;;;;;;;16.42;3.75;;;10.70;99.90;;;;;;5057851;28;20434;-74
2022/10/07 02:56:32;;;;;;;15.82;4.05;;;10.70;99.90;;;;;;5039607;28;20363;-77
2022/10/07 02:59:06;;;;;;;10.23;3.42;;;10.80;99.90;;;;;;5037387;28;20331;-73
2022/10/07 03:01:37;;;;;;;15.45;3.60;;;10.70;99.90;;;;;;5040667;28;20022;-73
2022/10/07 03:04:04;;;;;;;20.77;3.78;;;10.70;99.90;;;;;;5043684;28;20055;-72
2022/10/07 03:06:29;;;;;;;9.70;3.25;;;10.70;99.90;;;;;;5046861;28;20029;-74
2022/10/07 03:08:56;;;;;;;19.98;4.82;;;10.80;99.90;;;;;;5040844;28;20545;-73
2022/10/07 03:11:23;;;;;;;18.67;5.18;;;10.70;99.90;;;;;;5043563;28;20689;-74
2022/10/07 03:13:48;;;;;;;9.55;3.20;;;10.70;99.90;;;;;;5040536;28;20021;-74
2022/10/07 03:16:16;;;;;;;20.60;3.90;;;10.80;99.90;;;;;;5041185;28;20640;-74
2022/10/07 03:18:42;;;;;;;16.00;3.83;;;10.80;99.90;;;;;;5041621;28;20025;-74
2022/10/07 03:21:07;;;;;;;15.02;3.65;;;10.80;99.90;;;;;;5043865;28;20094;-72
2022/10/07 03:23:33;;;;;;;17.00;3.78;;;10.80;99.90;;;;;;5039452;28;20529;-73
2022/10/07 03:25:59;;;;;;;15.23;3.75;;;10.80;99.90;;;;;;5038882;28;20029;-74
2022/10/07 03:28:27;;;;;;;14.13;3.00;;;10.70;99.90;;;;;;5039944;28;20021;-73
2022/10/07 03:30:53;;;;;;;14.98;3.35;;;10.60;99.90;;;;;;5037501;28;20115;-74
2022/10/07 03:33:24;;;;;;;16.73;4.05;;;10.60;99.90;;;;;;5040355;28;20463;-73
2022/10/07 03:35:50;;;;;;;13.70;3.72;;;10.60;99.90;;;;;;5040935;28;20055;-73
2022/10/07 03:38:15;;;;;;;11.38;3.38;;;10.60;99.90;;;;;;5046029;28;20438;-74
2022/10/07 03:40:43;;;;;;;11.05;3.75;;;10.60;99.90;;;;;;5039850;28;20021;-74
2022/10/07 03:43:08;;;;;;;15.73;3.60;;;10.60;99.90;;;;;;5039974;28;20091;-74
2022/10/07 03:45:43;;;;;;;18.92;3.85;;;10.60;99.90;;;;;;5040690;28;20026;-73
2022/10/07 03:48:09;;;;;;;15.68;3.60;;;10.50;99.90;;;;;;5036936;28;20092;-73
2022/10/07 03:50:35;;;;;;;16.38;3.83;;;10.60;99.90;;;;;;5038984;28;20030;-74
2022/10/07 03:53:01;;;;;;;10.52;3.90;;;10.50;99.90;;;;;;5040692;28;20037;-74
2022/10/07 03:55:26;;;;;;;21.33;4.15;;;10.50;99.90;;;;;;5039080;28;20489;-74
2022/10/07 03:57:52;;;;;;;22.13;3.35;;;10.50;99.90;;;;;;5040190;28;20022;-74
2022/10/07 04:00:20;;;;;;;14.27;3.35;;;10.50;99.90;;;;;;5037655;28;20346;-73
2022/10/07 04:02:50;;;;;;;16.00;3.25;;;10.40;99.90;;;;;;5041433;28;20017;-74
2022/10/07 04:05:17;;;;;;;14.65;3.60;;;10.40;99.90;;;;;;5040459;28;20060;-73
2022/10/07 04:07:44;;;;;;;13.98;3.33;;;10.40;99.90;;;;;;5039422;28;20143;-74
2022/10/07 04:10:15;;;;;;;18.15;3.63;;;10.40;99.90;;;;;;5039378;28;20047;-73
2022/10/07 04:12:44;;;;;;;19.00;3.78;;;10.40;99.90;;;;;;5039436;28;20029;-74
2022/10/07 04:15:13;;;;;;;10.80;3.45;;;10.40;99.90;;;;;;5039038;28;20028;-73
2022/10/07 04:17:43;;;;;;;15.95;3.53;;;10.40;99.90;;;;;;5039952;28;20025;-72
2022/10/07 04:20:10;;;;;;;11.60;3.30;;;10.40;99.90;;;;;;5040127;28;20108;-74
2022/10/07 04:22:36;;;;;;;14.00;3.05;;;10.40;99.90;;;;;;5038838;28;20022;-73
2022/10/07 04:27:56;;;;;;;17.50;3.75;;;10.40;99.90;;;;;;5042073;28;20175;-74
2022/10/07 04:30:23;;;;;;;13.30;2.95;;;10.40;99.90;;;;;;5040545;28;20043;-74
2022/10/07 04:32:51;;;;;;;14.23;3.35;;;10.40;99.90;;;;;;5042330;28;20029;-74
2022/10/07 04:35:23;;;;;;;16.02;3.30;;;10.40;99.90;;;;;;5033924;28;20037;-74
2022/10/07 04:37:52;;;;;;;17.20;3.50;;;10.40;99.90;;;;;;5056300;28;20117;-74
2022/10/07 04:40:19;;;;;;;19.38;3.72;;;10.40;99.90;;;;;;5038853;28;20027;-75
2022/10/07 04:45:39;;;;;;;15.73;3.15;;;10.40;99.90;;;;;;5040353;28;20158;-74
2022/10/07 04:48:07;;;;;;;10.10;3.47;;;10.30;99.90;;;;;;5040875;28;20025;-74
2022/10/07 04:50:37;;;;;;;11.73;3.28;;;10.30;99.90;;;;;;5039375;28;20446;-74
2022/10/07 04:53:06;;;;;;;16.30;3.85;;;10.40;99.90;;;;;;5036007;28;20040;-74
2022/10/07 04:55:39;;;;;;;17.13;3.08;;;10.30;99.90;;;;;;5039398;28;20021;-75
2022/10/07 04:58:06;;;;;;;13.18;3.17;;;10.30;99.90;;;;;;5035065;28;20028;-74
2022/10/07 05:00:34;;;;;;;12.32;3.65;;;10.30;99.90;;;;;;5043282;28;20542;-74
2022/10/07 05:03:03;;;;;;;17.60;3.50;;;10.20;99.90;;;;;;5042678;28;20037;-73
2022/10/07 05:05:28;;;;;;;15.13;3.00;;;10.10;99.90;;;;;;5040107;28;20021;-73
2022/10/07 05:07:54;;;;;;;18.83;3.30;;;10.10;99.90;;;;;;5037612;28;20418;-75
2022/10/07 05:10:20;;;;;;;16.88;3.58;;;10.10;99.90;;;;;;5040085;28;20053;-73
2022/10/07 05:12:46;;;;;;;15.13;3.70;;;10.10;99.90;;;;;;5037220;28;20022;-74
2022/10/07 05:15:14;;;;;;;18.23;3.47;;;10.10;99.90;;;;;;5043887;28;20033;-75
2022/10/07 05:17:39;;;;;;;13.98;3.65;;;10.10;99.90;;;;;;5039403;28;20021;-73
2022/10/07 05:20:06;;;;;;;17.15;3.95;;;10.00;99.90;;;;;;5039327;28;20036;-73
2022/10/07 05:22:33;;;;;;;21.98;3.90;;;10.00;99.90;;;;;;5039694;28;20028;-74
2022/10/07 05:24:58;;;;;;;19.48;4.15;;;10.00;99.90;;;;;;5039855;28;20017;-74
2022/10/07 05:27:24;;;;;;;15.98;3.72;;;10.10;99.90;;;;;;5041731;28;20040;-75
2022/10/07 05:29:50;;;;;;;12.50;3.72;;;10.10;99.90;;;;;;5039947;28;20025;-72
2022/10/07 05:32:16;;;;;;;13.20;3.53;;;10.20;99.90;;;;;;5034885;28;20088;-74
2022/10/07 05:34:43;;;;;;;22.38;4.25;;;10.20;99.90;;;;;;5040775;28;20036;-72
2022/10/07 05:37:10;;;;;;;13.23;3.90;;;10.10;99.90;;;;;;5042163;28;20468;-74
2022/10/07 05:39:40;;;;;;;17.67;4.55;;;10.10;99.90;;;;;;5040019;28;20052;-72
2022/10/07 05:42:06;;;;;;;15.20;4.55;;;10.10;99.90;;;;;;5041504;28;20117;-73
2022/10/07 05:44:31;;;;;;;18.05;4.00;;;10.10;99.90;;;;;;5039532;28;20409;-74
2022/10/07 05:47:01;;;;;;;19.13;4.18;;;10.20;99.90;;;;;;5038743;28;20024;-74
2022/10/07 05:49:27;;;;;;;14.38;3.92;;;10.10;99.90;;;;;;5035629;28;20563;-76
2022/10/07 05:51:52;;;;;;;11.90;3.30;;;10.10;99.90;;;;;;5058662;28;20140;-75
2022/10/07 05:54:21;;;;;;;13.27;3.70;;;10.10;99.90;;;;;;5041446;28;20028;-74
2022/10/07 05:56:49;;;;;;;11.90;3.83;;;10.20;99.90;;;;;;5040771;28;20040;-76
2022/10/07 05:59:15;;;;;;;11.50;3.55;;;10.20;99.90;;;;;;5048378;28;20029;-72
2022/10/07 06:01:41;;;;;;;9.40;3.80;;;10.20;99.90;;;;;;5041263;28;20037;-74
2022/10/07 06:04:10;;;;;;;17.50;4.00;;;10.20;99.90;;;;;;5038044;28;20516;-73
2022/10/07 06:06:36;;;;;;;12.35;3.80;;;10.30;99.90;;;;;;5039900;28;20402;-73
2022/10/07 06:14:31;;;;;;;15.18;4.35;;;10.30;99.90;;;;;;5040876;28;20070;-74
2022/10/07 06:16:57;;;;;;;19.40;3.65;;;10.30;99.90;;;;;;5040581;28;20112;-74
2022/10/07 06:19:22;;;;;;;19.65;3.58;;;10.40;99.90;;;;;;5037393;28;20404;-75
2022/10/07 06:21:49;;;;;;;15.25;3.45;;;10.30;99.90;;;;;;5038237;28;20041;-73
2022/10/07 06:24:17;;;;;;;19.35;4.43;;;10.30;99.90;;;;;;5039905;28;20097;-75
2022/10/07 06:26:42;;;;;;;22.67;3.78;;;10.30;99.90;;;;;;5044445;28;20040;-74
2022/10/07 06:29:11;;;;;;;12.38;3.85;;;10.30;99.90;;;;;;5035196;28;20017;-74
2022/10/07 06:31:40;;;;;;;12.88;4.30;;;10.30;99.90;;;;;;5036615;28;20047;-75
2022/10/07 06:34:05;;;;;;;14.65;3.47;;;10.40;99.90;;;;;;5042768;28;20029;-75
2022/10/07 06:36:31;;;;;;;18.92;3.50;;;10.40;99.90;;;;;;5037146;28;20029;-74
2022/10/07 06:38:58;;;;;;;10.38;3.60;;;10.40;99.90;;;;;;5037326;28;20025;-74
2022/10/07 06:41:24;;;;;;;163.50;52.53;;;10.50;99.90;;;;;;5037072;28;20029;-72
2022/10/07 06:43:55;;;;;;;13.63;4.63;;;10.50;99.90;;;;;;5035144;28;20084;-73
2022/10/07 06:46:20;;;;;;;13.07;3.75;;;10.70;99.90;;;;;;5037101;28;20045;-74
2022/10/07 06:48:46;;;;;;;17.45;4.13;;;10.70;99.90;;;;;;5042172;28;20110;-74
2022/10/07 06:51:19;;;;;;;13.07;3.75;;;10.70;99.90;;;;;;5032124;28;20454;-73
2022/10/07 06:53:49;;;;;;;14.85;4.20;;;10.70;99.90;;;;;;5039396;28;20031;-76
2022/10/07 06:56:15;;;;;;;29.35;3.72;;;10.80;99.90;;;;;;5047836;28;20067;-76
2022/10/07 06:58:43;;;;;;;20.50;3.90;;;11.00;99.90;;;;;;5038769;28;20080;-75
2022/10/07 07:01:11;;;;;;;14.77;3.30;;;11.10;99.90;;;;;;5041535;28;20831;-74
2022/10/07 07:03:37;;;;;;;15.07;4.15;;;11.10;99.90;;;;;;5041887;28;20052;-76
2022/10/07 07:06:06;;;;;;;10.48;3.42;;;11.20;99.90;;;;;;5038415;28;20123;-75
2022/10/07 07:08:33;;;;;;;18.30;3.83;;;11.30;99.90;;;;;;5036048;28;20047;-75
2022/10/07 07:11:34;;;;;;;23.70;4.18;;;11.40;99.90;;;;;;5043999;28;20025;-75
2022/10/07 07:13:54;;;;;;;135.45;47.88;;;11.40;99.90;;;;;;5041530;28;20044;-72
2022/10/07 07:16:20;;;;;;;18.27;3.88;;;11.50;99.90;;;;;;5041217;28;20454;-75
2022/10/07 07:18:51;;;;;;;18.20;3.28;;;11.50;99.90;;;;;;5045030;28;20458;-76
2022/10/07 07:21:17;;;;;;;15.25;3.55;;;11.70;99.90;;;;;;5045506;28;20013;-74
2022/10/07 07:23:42;;;;;;;15.90;3.38;;;11.70;99.90;;;;;;5042776;28;20159;-75
2022/10/07 07:26:08;;;;;;;16.13;3.70;;;11.70;99.90;;;;;;5040600;28;20022;-70
2022/10/07 07:28:34;;;;;;;12.13;3.40;;;11.80;99.90;;;;;;5046424;28;20021;-74
2022/10/07 07:31:08;;;;;;;9.73;3.05;;;11.90;99.90;;;;;;5049292;28;20033;-74
2022/10/07 07:33:37;;;;;;;12.20;3.05;;;12.00;99.90;;;;;;5036678;28;20018;-76
2022/10/07 07:36:15;;;;;;;12.02;3.60;;;12.20;99.90;;;;;;5042103;28;20489;-74
2022/10/07 07:38:52;;;;;;;14.80;3.72;;;12.20;99.90;;;;;;5037043;28;20028;-74
2022/10/07 07:41:25;;;;;;;19.30;3.05;;;12.30;99.90;;;;;;5039844;28;20076;-75
2022/10/07 07:43:53;;;;;;;11.23;3.30;;;12.30;99.90;;;;;;5040624;28;20205;-75
2022/10/07 07:46:24;;;;;;;20.42;2.88;;;12.40;99.90;;;;;;5042072;28;20323;-75
2022/10/07 07:48:51;;;;;;;19.83;3.10;;;12.30;99.90;;;;;;5039651;28;20025;-75
2022/10/07 07:51:17;;;;;;;7.55;2.72;;;12.50;99.90;;;;;;5038771;28;20053;-73
2022/10/07 07:53:48;;;;;;;20.67;3.05;;;12.60;99.90;;;;;;5038779;28;20052;-75
2022/10/07 07:56:17;;;;;;;22.85;3.40;;;12.60;99.90;;;;;;5035365;28;20075;-78
2022/10/07 07:58:43;;;;;;;483.88;201.50;;;12.70;99.90;;;;;;5035562;28;20053;-71
2022/10/07 08:01:14;;;;;;;13.00;3.90;;;12.90;99.90;;;;;;5038138;28;20033;-75
2022/10/07 08:03:42;;;;;;;12.30;2.90;;;13.00;99.90;;;;;;5039649;28;20470;-74
2022/10/07 08:06:09;;;;;;;10.05;2.95;;;13.10;99.90;;;;;;5040518;28;20030;-74
2022/10/07 08:08:35;;;;;;;19.35;2.65;;;13.30;99.90;;;;;;5041851;28;20047;-75
2022/10/07 08:11:13;;;;;;;17.25;3.00;;;13.40;99.90;;;;;;5037071;28;20464;-72
2022/10/07 08:13:40;;;;;;;9.77;2.72;;;13.30;99.90;;;;;;5042807;28;20601;-75
2022/10/07 08:16:16;;;;;;;13.95;3.03;;;13.30;99.90;;;;;;5042463;28;20041;-73
2022/10/07 08:18:47;;;;;;;17.27;2.97;;;13.50;99.90;;;;;;5036772;28;20104;-75
2022/10/07 08:21:15;;;;;;;14.10;3.47;;;13.60;99.90;;;;;;5035512;28;20021;-74
2022/10/07 08:23:43;;;;;;;14.68;2.85;;;13.80;99.90;;;;;;5054224;28;20021;-75
2022/10/07 08:26:09;;;;;;;15.88;3.45;;;13.90;99.90;;;;;;5037484;28;20028;-73
2022/10/07 08:28:36;;;;;;;13.60;2.92;;;14.10;99.90;;;;;;5036237;28;20037;-75
2022/10/07 08:31:13;;;;;;;16.88;3.35;;;14.20;99.90;;;;;;5035700;28;20040;-73
2022/10/07 08:33:41;;;;;;;16.05;3.10;;;14.60;99.90;;;;;;5036028;28;20030;-75
2022/10/07 08:36:11;;;;;;;14.52;2.78;;;14.80;99.90;;;;;;5036574;28;20059;-75
2022/10/07 08:38:38;;;;;;;12.43;2.45;;;14.60;99.90;;;;;;5037001;28;20454;-75
2022/10/07 08:41:18;;;;;;;9.65;3.38;;;14.80;99.90;;;;;;5036627;28;20156;-75
2022/10/07 08:43:48;;;;;;;7.30;2.33;;;14.80;99.90;;;;;;5037111;28;20048;-75
2022/10/07 08:46:36;;;;;;;15.27;2.80;;;14.80;99.90;;;;;;5037480;28;20056;-76
2022/10/07 08:49:11;;;;;;;12.95;2.40;;;15.30;99.90;;;;;;5037889;28;20025;-75
2022/10/07 08:52:04;;;;;;;13.77;2.28;;;16.10;99.90;;;;;;5040250;28;20111;-70
2022/10/07 08:54:32;;;;;;;150.50;50.72;;;16.60;99.10;;;;;;5039197;28;20037;-70
2022/10/07 08:57:05;;;;;;;11.85;2.47;;;17.40;98.40;;;;;;5037533;28;20037;-75
2022/10/07 08:59:36;;;;;;;11.52;2.35;;;17.80;96.80;;;;;;5037467;28;20479;-74
2022/10/07 09:02:36;;;;;;;18.17;2.70;;;18.20;96.50;;;;;;5037339;28;20044;-73
2022/10/07 09:05:31;;;;;;;16.27;2.45;;;18.60;94.60;;;;;;5040364;28;20047;-76
2022/10/07 09:08:01;;;;;;;11.57;2.45;;;18.90;92.80;;;;;;5038510;28;20041;-71
2022/10/07 09:10:27;;;;;;;13.63;2.05;;;19.60;92.70;;;;;;5034556;28;20415;-74
2022/10/07 09:12:57;;;;;;;12.35;2.38;;;20.40;91.20;;;;;;5038763;28;20041;-75
2022/10/07 09:15:36;;;;;;;14.00;2.55;;;20.50;89.10;;;;;;5035594;28;20025;-75
2022/10/07 09:18:18;;;;;;;12.57;3.25;;;21.20;87.80;;;;;;5041642;28;20029;-75
2022/10/07 09:20:51;;;;;;;12.20;1.98;;;20.70;84.80;;;;;;5040216;28;20092;-73
2022/10/07 09:23:18;;;;;;;14.90;3.50;;;20.60;84.60;;;;;;5036666;28;20017;-72
2022/10/07 09:25:46;;;;;;;17.00;2.33;;;20.50;84.60;;;;;;5042601;28;20053;-73
2022/10/07 09:28:15;;;;;;;14.45;2.88;;;19.60;85.20;;;;;;5039089;28;20040;-74
2022/10/07 09:30:43;;;;;;;13.75;2.83;;;20.20;85.90;;;;;;5053093;28;20482;-74
2022/10/07 09:33:17;;;;;;;13.63;3.22;;;20.30;85.50;;;;;;5036833;28;20028;-75
2022/10/07 09:35:54;;;;;;;11.90;3.22;;;20.00;85.80;;;;;;5040997;28;20018;-73
2022/10/07 09:38:36;;;;;;;21.55;3.83;;;20.10;83.90;;;;;;5054320;28;20040;-74
2022/10/07 09:41:19;;;;;;;15.77;2.40;;;20.20;85.50;;;;;;5036928;28;20037;-74
2022/10/07 09:44:14;;;;;;;14.73;2.55;;;20.40;82.60;;;;;;5035162;28;20378;-74
2022/10/07 09:46:40;;;;;;;14.23;2.60;;;20.20;83.60;;;;;;5039386;28;20033;-74
2022/10/07 09:49:08;;;;;;;8.38;2.28;;;19.80;84.50;;;;;;5034728;28;20086;-73
2022/10/07 09:51:34;;;;;;;10.98;2.30;;;19.30;86.20;;;;;;5037095;28;20323;-74
2022/10/07 09:54:21;;;;;;;15.73;2.90;;;19.20;86.90;;;;;;5034230;28;20040;-74
2022/10/07 09:56:52;;;;;;;12.45;2.45;;;18.90;88.20;;;;;;5044553;28;20120;-74
2022/10/07 09:59:24;;;;;;;20.50;2.50;;;19.20;88.90;;;;;;5042454;28;20010;-74
2022/10/07 10:02:17;;;;;;;10.13;2.33;;;19.50;90.70;;;;;;5035679;28;20133;-75
2022/10/07 10:04:49;;;;;;;10.82;2.35;;;19.50;87.90;;;;;;5038779;28;20022;-74
2022/10/07 10:07:38;;;;;;;12.35;2.10;;;19.30;88.20;;;;;;5038870;28;20044;-74
2022/10/07 10:10:30;;;;;;;15.43;2.38;;;19.30;87.70;;;;;;5038309;28;20017;-74
2022/10/07 10:13:00;;;;;;;10.02;2.28;;;19.50;86.50;;;;;;5036317;28;20021;-73
2022/10/07 10:15:44;;;;;;;15.43;2.55;;;19.30;87.00;;;;;;5035233;28;20111;-75
2022/10/07 10:18:33;;;;;;;17.20;2.40;;;19.30;87.70;;;;;;5032880;28;20115;-75
2022/10/07 10:21:17;;;;;;;10.90;1.90;;;19.20;86.10;;;;;;5038704;28;20517;-76
2022/10/07 10:23:49;;;;;;;10.88;2.50;;;19.50;86.20;;;;;;5040626;28;20120;-73
2022/10/07 10:26:43;;;;;;;16.60;1.93;;;19.80;86.70;;;;;;5041783;28;20044;-74
2022/10/07 10:29:28;;;;;;;12.73;2.30;;;20.30;84.00;;;;;;5029334;28;20061;-74
2022/10/07 10:32:20;;;;;;;10.90;2.30;;;20.20;82.90;;;;;;5044487;28;20036;-74
2022/10/07 10:35:13;;;;;;;11.75;2.38;;;20.50;82.80;;;;;;5044882;28;20117;-73
2022/10/07 10:37:39;;;;;;;;;;;20.90;81.60;;;;;;5040716;28;20021;-73
2022/10/07 10:40:23;;;;;;;11.10;2.40;;;20.90;81.70;;;;;;5041255;28;19913;-74
2022/10/07 10:43:24;;;;;;;10.82;1.88;;;20.90;80.60;;;;;;5042594;28;20326;-76
2022/10/07 10:46:14;;;;;;;11.07;2.30;;;20.50;79.70;;;;;;5034420;28;20060;-73
2022/10/07 10:49:24;;;;;;;16.05;2.95;;;20.70;81.70;;;;;;5047305;28;20025;-72
2022/10/07 10:52:09;;;;;;;14.07;2.47;;;21.00;80.90;;;;;;5028108;28;20188;-73
2022/10/07 10:54:54;;;;;;;14.00;2.63;;;20.80;78.20;;;;;;5043022;28;20061;-72
2022/10/07 10:57:34;;;;;;;17.88;2.30;;;20.80;79.70;;;;;;5042319;28;20358;-73
2022/10/07 11:00:16;;;;;;;16.75;2.42;;;20.70;79.10;;;;;;5039503;28;20759;-73
2022/10/07 11:02:42;;;;;;;14.32;2.17;;;20.70;79.20;;;;;;5041320;28;20025;-72
2022/10/07 11:05:37;;;;;;;9.27;2.30;;;21.00;79.30;;;;;;5039937;28;20417;-73
2022/10/07 11:08:10;;;;;;;14.25;2.08;;;21.40;79.10;;;;;;5040794;28;20212;-74
2022/10/07 11:10:43;;;;;;;16.92;2.30;;;21.90;76.50;;;;;;5041804;28;20036;-74
2022/10/07 11:13:11;;;;;;;13.82;2.15;;;21.80;76.40;;;;;;5044064;28;20093;-74
2022/10/07 11:15:46;;;;;;;15.38;2.28;;;21.80;73.40;;;;;;5039938;28;20045;-73
2022/10/07 11:18:25;;;;;;;9.35;2.15;;;21.70;74.20;;;;;;5041407;28;20086;-74
2022/10/07 11:20:52;;;;;;;12.27;2.33;;;21.50;74.50;;;;;;5045306;28;20013;-73
2022/10/07 11:23:36;;;;;;;12.18;2.13;;;21.50;75.20;;;;;;5046230;28;20017;-75
2022/10/07 11:26:09;;;;;;;9.38;2.53;;;21.50;74.50;;;;;;5044104;28;20048;-74
2022/10/07 11:28:38;;;;;;;10.55;2.80;;;21.50;74.30;;;;;;5043719;28;20453;-74
2022/10/07 11:31:10;;;;;;;13.77;2.63;;;21.60;74.70;;;;;;5040737;28;20112;-74
2022/10/07 11:33:51;;;;;;;19.75;3.42;;;22.20;74.90;;;;;;5045454;28;20041;-69
2022/10/07 11:36:39;;;;;;;13.73;2.65;;;22.10;72.00;;;;;;5042281;28;20037;-74
2022/10/07 11:39:07;;;;;;;13.23;2.30;;;21.90;72.60;;;;;;5021250;28;20503;-73
2022/10/07 11:42:05;;;;;;;8.48;2.17;;;21.60;72.80;;;;;;5041925;28;20565;-73
2022/10/07 11:44:52;;;;;;;10.35;2.38;;;21.70;73.90;;;;;;5036430;28;20060;-73
2022/10/07 11:47:22;;;;;;;8.35;2.10;;;21.90;71.80;;;;;;5040049;28;20028;-74
2022/10/07 11:50:21;;;;;;;10.50;2.25;;;21.60;72.30;;;;;;5039880;28;20025;-73
2022/10/07 11:52:50;;;;;;;8.63;2.22;;;21.80;71.60;;;;;;5041413;28;20114;-74
2022/10/07 11:55:24;;;;;;;11.27;2.17;;;21.90;71.50;;;;;;5041468;28;20143;-71
2022/10/07 11:57:56;;;;;;;8.15;1.90;;;21.90;72.80;;;;;;5042386;28;20442;-73
2022/10/07 12:00:48;;;;;;;9.82;2.25;;;22.20;72.70;;;;;;5038351;28;20442;-74
2022/10/07 12:03:17;;;;;;;10.45;2.17;;;22.10;71.30;;;;;;5043475;28;20056;-74
2022/10/07 12:05:49;;;;;;;18.25;1.63;;;22.30;70.80;;;;;;5041590;28;20482;-74
2022/10/07 12:08:33;;;;;;;13.13;2.38;;;22.10;69.70;;;;;;5038044;28;20029;-72
2022/10/07 12:11:11;;;;;;;6.78;2.15;;;22.40;69.30;;;;;;5037993;28;20025;-74
2022/10/07 12:13:38;;;;;;;13.82;1.77;;;22.30;69.40;;;;;;5043943;28;20111;-76
2022/10/07 12:16:36;;;;;;;17.33;2.33;;;22.30;69.90;;;;;;5042658;28;20037;-73
2022/10/07 12:19:11;;;;;;;9.15;2.30;;;22.60;68.70;;;;;;5005456;28;20044;-73
2022/10/07 12:21:58;;;;;;;14.27;2.45;;;22.60;68.70;;;;;;5044015;28;20131;-73
2022/10/07 12:24:27;;;;;;;10.38;2.15;;;22.70;68.50;;;;;;5047039;28;20030;-73
2022/10/07 12:27:05;;;;;;;17.35;2.50;;;22.70;67.90;;;;;;5041918;28;20348;-74
2022/10/07 12:29:58;;;;;;;10.52;2.40;;;22.90;68.40;;;;;;5039820;28;20021;-75
2022/10/07 12:32:45;;;;;;;16.05;3.10;;;23.10;66.20;;;;;;5042307;28;20587;-74
2022/10/07 12:35:39;;;;;;;14.50;2.88;;;23.20;66.30;;;;;;5039833;28;20173;-73
2022/10/07 12:38:25;;;;;;;14.07;2.35;;;23.40;65.80;;;;;;5035865;28;20100;-74
2022/10/07 12:41:04;;;;;;;12.13;2.58;;;23.10;66.10;;;;;;5037005;28;20013;-73
2022/10/07 12:43:35;;;;;;;9.68;2.00;;;23.40;66.70;;;;;;5038697;28;20033;-73
2022/10/07 12:46:12;;;;;;;8.10;2.40;;;23.40;66.20;;;;;;5040427;28;20025;-73
2022/10/07 12:48:47;;;;;;;16.20;2.65;;;23.50;65.60;;;;;;5045306;28;20025;-73
2022/10/07 12:51:20;;;;;;;15.52;2.60;;;23.40;66.30;;;;;;5043883;28;20426;-72
2022/10/07 12:53:49;;;;;;;6.55;1.83;;;23.80;66.20;;;;;;5041936;28;20040;-74
2022/10/07 12:56:21;;;;;;;14.93;2.70;;;24.10;63.80;;;;;;5037924;28;20076;-73
2022/10/07 13:01:59;;;;;;;;;;;24.20;62.50;;;;;;5041034;28;20036;-72
2022/10/07 13:04:47;;;;;;;16.20;2.63;;;23.70;62.50;;;;;;5038334;28;19920;-72
2022/10/07 13:07:18;;;;;;;17.20;2.72;;;23.70;63.70;;;;;;5038889;28;20021;-73
2022/10/07 13:09:55;;;;;;;11.95;2.58;;;23.70;62.90;;;;;;5038939;28;20457;-74
2022/10/07 13:12:46;;;;;;;12.80;2.90;;;23.60;63.80;;;;;;5036625;28;20021;-73
2022/10/07 13:15:19;;;;;;;8.55;2.25;;;24.00;63.70;;;;;;5038471;28;20582;-73
2022/10/07 13:17:44;;;;;;;10.63;2.03;;;23.50;62.40;;;;;;5040497;28;20142;-73
2022/10/07 13:20:35;;;;;;;11.23;2.30;;;23.60;62.40;;;;;;5039450;28;20111;-73